sensor_id;sensor_type;location;lat;lon;timestamp;pressure;altitude;pressure_sealevel;temperature;humidity
45894;BME280;31603;51.148;16.932;2023-08-30T00:02:16;99246.72;;;14.50;100.00
45894;BME280;31603;51.148;16.932;2023-08-30T00:04:43;99243.69;;;14.51;100.00
45894;BME280;31603;51.148;16.932;2023-08-30T00:07:09;99247.88;;;14.54;100.00
45894;BME280;31603;51.148;16.932;2023-08-30T00:09:36;99257.59;;;14.56;100.00
45894;BME280;31603;51.148;16.932;2023-08-30T00:12:04;99258.09;;;14.53;100.00
45894;BME280;31603;51.148;16.932;2023-08-30T00:14:31;99258.66;;;14.55;100.00
45894;BME280;31603;51.148;16.932;2023-08-30T00:16:57;99263.59;;;14.75;100.00
45894;BME280;31603;51.148;16.932;2023-08-30T00:19:25;99252.25;;;14.50;100.00
45894;BME280;31603;51.148;16.932;2023-08-30T00:21:52;99260.59;;;14.55;100.00
45894;BME280;31603;51.148;16.932;2023-08-30T00:24:18;99260.72;;;14.43;100.00
45894;BME280;31603;51.148;16.932;2023-08-30T00:26:45;99268.34;;;14.53;100.00
45894;BME280;31603;51.148;16.932;2023-08-30T00:29:11;99273.00;;;14.52;100.00
45894;BME280;31603;51.148;16.932;2023-08-30T00:31:37;99270.00;;;14.54;100.00
45894;BME280;31603;51.148;16.932;2023-08-30T00:34:04;99278.66;;;14.62;100.00
45894;BME280;31603;51.148;16.932;2023-08-30T00:36:32;99271.94;;;14.53;100.00
45894;BME280;31603;51.148;16.932;2023-08-30T00:38:58;99266.50;;;14.41;100.00
45894;BME280;31603;51.148;16.932;2023-08-30T00:41:25;99267.78;;;14.56;100.00
45894;BME280;31603;51.148;16.932;2023-08-30T00:43:51;99272.38;;;14.67;100.00
45894;BME280;31603;51.148;16.932;2023-08-30T00:46:18;99265.97;;;14.44;100.00
45894;BME280;31603;51.148;16.932;2023-08-30T00:48:44;99265.25;;;14.76;100.00
45894;BME280;31603;51.148;16.932;2023-08-30T00:51:11;99255.13;;;14.38;100.00
45894;BME280;31603;51.148;16.932;2023-08-30T00:53:40;99238.41;;;14.50;100.00
45894;BME280;31603;51.148;16.932;2023-08-30T00:56:06;99244.09;;;14.65;100.00
45894;BME280;31603;51.148;16.932;2023-08-30T00:58:33;99234.06;;;14.59;100.00
45894;BME280;31603;51.148;16.932;2023-08-30T01:01:00;99238.91;;;14.47;100.00
45894;BME280;31603;51.148;16.932;2023-08-30T01:03:27;99251.31;;;14.66;100.00
45894;BME280;31603;51.148;16.932;2023-08-30T01:05:53;99248.28;;;14.95;100.00
45894;BME280;31603;51.148;16.932;2023-08-30T01:08:19;99246.84;;;14.60;100.00
45894;BME280;31603;51.148;16.932;2023-08-30T01:10:53;99246.81;;;14.87;100.00
45894;BME280;31603;51.148;16.932;2023-08-30T01:13:21;99242.53;;;15.01;100.00
45894;BME280;31603;51.148;16.932;2023-08-30T01:15:48;99244.78;;;14.77;100.00
45894;BME280;31603;51.148;16.932;2023-08-30T01:18:18;99237.31;;;14.78;100.00
45894;BME280;31603;51.148;16.932;2023-08-30T01:20:45;99253.59;;;15.01;100.00
45894;BME280;31603;51.148;16.932;2023-08-30T01:23:21;99250.78;;;14.69;100.00
45894;BME280;31603;51.148;16.932;2023-08-30T01:25:57;99256.22;;;14.59;100.00
45894;BME280;31603;51.148;16.932;2023-08-30T01:28:31;99259.59;;;14.44;100.00
45894;BME280;31603;51.148;16.932;2023-08-30T01:31:00;99265.13;;;14.66;100.00
45894;BME280;31603;51.148;16.932;2023-08-30T01:33:28;99271.41;;;14.56;100.00
45894;BME280;31603;51.148;16.932;2023-08-30T01:35:57;99287.94;;;14.51;100.00
45894;BME280;31603;51.148;16.932;2023-08-30T01:38:26;99268.56;;;14.51;100.00
45894;BME280;31603;51.148;16.932;2023-08-30T01:40:53;99270.44;;;14.67;100.00
45894;BME280;31603;51.148;16.932;2023-08-30T01:43:21;99272.19;;;14.52;100.00
45894;BME280;31603;51.148;16.932;2023-08-30T01:45:49;99273.66;;;14.59;100.00
45894;BME280;31603;51.148;16.932;2023-08-30T01:48:17;99274.22;;;14.39;100.00
45894;BME280;31603;51.148;16.932;2023-08-30T01:50:45;99270.97;;;14.20;100.00
45894;BME280;31603;51.148;16.932;2023-08-30T01:53:12;99271.84;;;14.26;100.00
45894;BME280;31603;51.148;16.932;2023-08-30T01:55:40;99271.50;;;14.44;100.00
45894;BME280;31603;51.148;16.932;2023-08-30T01:58:07;99267.47;;;14.52;100.00
45894;BME280;31603;51.148;16.932;2023-08-30T02:00:34;99270.63;;;14.61;100.00
45894;BME280;31603;51.148;16.932;2023-08-30T02:03:09;99251.31;;;14.66;100.00
45894;BME280;31603;51.148;16.932;2023-08-30T02:05:37;99253.97;;;14.56;100.00
45894;BME280;31603;51.148;16.932;2023-08-30T02:08:10;99248.69;;;14.54;100.00
45894;BME280;31603;51.148;16.932;2023-08-30T02:10:45;99254.03;;;14.61;100.00
45894;BME280;31603;51.148;16.932;2023-08-30T02:13:14;99259.94;;;14.48;100.00
45894;BME280;31603;51.148;16.932;2023-08-30T02:15:42;99254.88;;;14.61;100.00
45894;BME280;31603;51.148;16.932;2023-08-30T02:18:11;99258.94;;;14.81;100.00
45894;BME280;31603;51.148;16.932;2023-08-30T02:20:38;99251.00;;;14.62;100.00
45894;BME280;31603;51.148;16.932;2023-08-30T02:23:05;99250.44;;;14.38;100.00
45894;BME280;31603;51.148;16.932;2023-08-30T02:25:31;99247.75;;;14.49;100.00
45894;BME280;31603;51.148;16.932;2023-08-30T02:27:58;99248.19;;;14.57;100.00
45894;BME280;31603;51.148;16.932;2023-08-30T02:30:24;99258.19;;;14.90;100.00
45894;BME280;31603;51.148;16.932;2023-08-30T02:32:51;99251.25;;;14.61;100.00
45894;BME280;31603;51.148;16.932;2023-08-30T02:35:19;99259.75;;;14.81;100.00
45894;BME280;31603;51.148;16.932;2023-08-30T02:37:45;99248.28;;;14.95;100.00
45894;BME280;31603;51.148;16.932;2023-08-30T02:40:11;99249.00;;;14.58;100.00
45894;BME280;31603;51.148;16.932;2023-08-30T02:42:38;99246.31;;;14.90;100.00
45894;BME280;31603;51.148;16.932;2023-08-30T02:45:05;99239.72;;;14.69;100.00
45894;BME280;31603;51.148;16.932;2023-08-30T02:47:31;99242.69;;;14.40;100.00
45894;BME280;31603;51.148;16.932;2023-08-30T02:49:58;99242.84;;;14.51;100.00
45894;BME280;31603;51.148;16.932;2023-08-30T02:52:26;99239.59;;;14.59;100.00
45894;BME280;31603;51.148;16.932;2023-08-30T02:54:52;99233.69;;;14.77;100.00
45894;BME280;31603;51.148;16.932;2023-08-30T02:57:18;99241.94;;;14.67;100.00
45894;BME280;31603;51.148;16.932;2023-08-30T02:59:45;99236.41;;;14.67;100.00
45894;BME280;31603;51.148;16.932;2023-08-30T03:02:11;99227.19;;;14.61;100.00
45894;BME280;31603;51.148;16.932;2023-08-30T03:04:38;99224.38;;;14.83;100.00
45894;BME280;31603;51.148;16.932;2023-08-30T03:07:04;99217.44;;;14.54;100.00
45894;BME280;31603;51.148;16.932;2023-08-30T03:09:32;99225.00;;;14.63;100.00
45894;BME280;31603;51.148;16.932;2023-08-30T03:11:59;99227.22;;;14.66;100.00
45894;BME280;31603;51.148;16.932;2023-08-30T03:14:25;99232.41;;;14.58;100.00
45894;BME280;31603;51.148;16.932;2023-08-30T03:16:52;99225.91;;;14.74;100.00
45894;BME280;31603;51.148;16.932;2023-08-30T03:19:18;99220.19;;;14.54;100.00
45894;BME280;31603;51.148;16.932;2023-08-30T03:21:44;99230.41;;;14.80;100.00
45894;BME280;31603;51.148;16.932;2023-08-30T03:24:11;99225.84;;;14.64;100.00
45894;BME280;31603;51.148;16.932;2023-08-30T03:26:42;99212.22;;;14.35;100.00
45894;BME280;31603;51.148;16.932;2023-08-30T03:29:08;99216.41;;;14.38;100.00
45894;BME280;31603;51.148;16.932;2023-08-30T03:31:35;99221.13;;;14.64;100.00
45894;BME280;31603;51.148;16.932;2023-08-30T03:34:01;99214.72;;;14.86;100.00
45894;BME280;31603;51.148;16.932;2023-08-30T03:36:28;99225.13;;;14.52;100.00
45894;BME280;31603;51.148;16.932;2023-08-30T03:38:54;99225.53;;;14.60;100.00
45894;BME280;31603;51.148;16.932;2023-08-30T03:41:21;99226.56;;;14.54;100.00
45894;BME280;31603;51.148;16.932;2023-08-30T03:43:48;99231.69;;;14.45;100.00
45894;BME280;31603;51.148;16.932;2023-08-30T03:46:15;99225.47;;;14.33;100.00
45894;BME280;31603;51.148;16.932;2023-08-30T03:48:41;99220.31;;;14.42;100.00
45894;BME280;31603;51.148;16.932;2023-08-30T03:51:08;99229.44;;;14.42;100.00
45894;BME280;31603;51.148;16.932;2023-08-30T03:53:34;99237.22;;;14.67;100.00
45894;BME280;31603;51.148;16.932;2023-08-30T03:56:01;99237.75;;;14.64;100.00
45894;BME280;31603;51.148;16.932;2023-08-30T03:58:28;99237.69;;;14.37;100.00
45894;BME280;31603;51.148;16.932;2023-08-30T04:00:56;99239.94;;;14.40;100.00
45894;BME280;31603;51.148;16.932;2023-08-30T04:03:23;99232.47;;;14.41;100.00
45894;BME280;31603;51.148;16.932;2023-08-30T04:05:55;99222.66;;;14.50;100.00
45894;BME280;31603;51.148;16.932;2023-08-30T04:08:22;99222.34;;;14.25;100.00
45894;BME280;31603;51.148;16.932;2023-08-30T04:10:52;99214.84;;;14.47;100.00
45894;BME280;31603;51.148;16.932;2023-08-30T04:13:18;99219.53;;;14.47;100.00
45894;BME280;31603;51.148;16.932;2023-08-30T04:15:45;99210.22;;;14.53;100.00
45894;BME280;31603;51.148;16.932;2023-08-30T04:18:13;99219.69;;;14.57;100.00
45894;BME280;31603;51.148;16.932;2023-08-30T04:20:43;99217.69;;;14.52;100.00
45894;BME280;31603;51.148;16.932;2023-08-30T04:23:10;99218.16;;;14.71;100.00
45894;BME280;31603;51.148;16.932;2023-08-30T04:25:37;99219.94;;;14.33;100.00
45894;BME280;31603;51.148;16.932;2023-08-30T04:28:04;99230.78;;;14.40;100.00
45894;BME280;31603;51.148;16.932;2023-08-30T04:30:31;99234.38;;;14.62;100.00
45894;BME280;31603;51.148;16.932;2023-08-30T04:32:58;99230.16;;;14.55;100.00
45894;BME280;31603;51.148;16.932;2023-08-30T04:35:27;99245.84;;;14.71;100.00
45894;BME280;31603;51.148;16.932;2023-08-30T04:37:54;99248.31;;;14.45;100.00
45894;BME280;31603;51.148;16.932;2023-08-30T04:40:20;99249.88;;;14.41;100.00
45894;BME280;31603;51.148;16.932;2023-08-30T04:42:46;99246.88;;;14.43;100.00
45894;BME280;31603;51.148;16.932;2023-08-30T04:45:13;99246.56;;;14.39;100.00
45894;BME280;31603;51.148;16.932;2023-08-30T04:47:39;99236.38;;;14.45;100.00
45894;BME280;31603;51.148;16.932;2023-08-30T04:50:08;99241.75;;;14.52;100.00
45894;BME280;31603;51.148;16.932;2023-08-30T04:52:36;99236.28;;;14.35;100.00
45894;BME280;31603;51.148;16.932;2023-08-30T04:55:03;99246.44;;;14.29;100.00
45894;BME280;31603;51.148;16.932;2023-08-30T04:57:30;99241.03;;;14.39;100.00
45894;BME280;31603;51.148;16.932;2023-08-30T04:59:57;99236.66;;;14.43;100.00
45894;BME280;31603;51.148;16.932;2023-08-30T05:02:23;99240.50;;;14.42;100.00
45894;BME280;31603;51.148;16.932;2023-08-30T05:04:49;99228.53;;;14.59;100.00
45894;BME280;31603;51.148;16.932;2023-08-30T05:07:16;99231.25;;;14.54;100.00
45894;BME280;31603;51.148;16.932;2023-08-30T05:09:44;63776.66;;;-146.80;100.00
45894;BME280;31603;51.148;16.932;2023-08-30T05:12:10;63776.66;;;-146.80;100.00
45894;BME280;31603;51.148;16.932;2023-08-30T05:14:37;63776.66;;;-146.80;100.00
45894;BME280;31603;51.148;16.932;2023-08-30T05:17:04;63776.66;;;-146.80;100.00
45894;BME280;31603;51.148;16.932;2023-08-30T05:19:30;63776.66;;;-146.80;100.00
45894;BME280;31603;51.148;16.932;2023-08-30T05:21:56;63776.66;;;-146.80;100.00
45894;BME280;31603;51.148;16.932;2023-08-30T05:24:23;63776.66;;;-146.80;100.00
45894;BME280;31603;51.148;16.932;2023-08-30T05:26:52;63776.66;;;-146.80;100.00
45894;BME280;31603;51.148;16.932;2023-08-30T05:29:19;63776.66;;;-146.80;100.00
45894;BME280;31603;51.148;16.932;2023-08-30T05:31:51;63776.66;;;-146.80;100.00
45894;BME280;31603;51.148;16.932;2023-08-30T05:34:20;63776.66;;;-146.80;100.00
45894;BME280;31603;51.148;16.932;2023-08-30T05:36:47;63776.66;;;-146.80;100.00
45894;BME280;31603;51.148;16.932;2023-08-30T05:39:13;63776.66;;;-146.80;100.00
45894;BME280;31603;51.148;16.932;2023-08-30T05:41:39;63776.66;;;-146.80;100.00
45894;BME280;31603;51.148;16.932;2023-08-30T05:44:07;63776.66;;;-146.80;100.00
45894;BME280;31603;51.148;16.932;2023-08-30T05:46:34;63776.66;;;-146.80;100.00
45894;BME280;31603;51.148;16.932;2023-08-30T05:49:00;63776.66;;;-146.80;100.00
45894;BME280;31603;51.148;16.932;2023-08-30T05:51:28;63776.66;;;-146.80;100.00
45894;BME280;31603;51.148;16.932;2023-08-30T05:53:54;63776.66;;;-146.80;100.00
45894;BME280;31603;51.148;16.932;2023-08-30T05:56:21;63776.66;;;-146.80;100.00
45894;BME280;31603;51.148;16.932;2023-08-30T05:58:47;63776.66;;;-146.80;100.00
45894;BME280;31603;51.148;16.932;2023-08-30T06:01:17;63776.66;;;-146.80;100.00
45894;BME280;31603;51.148;16.932;2023-08-30T06:03:44;63776.66;;;-146.80;100.00
45894;BME280;31603;51.148;16.932;2023-08-30T06:06:11;63776.66;;;-146.80;100.00
45894;BME280;31603;51.148;16.932;2023-08-30T06:08:47;63776.66;;;-146.80;100.00
45894;BME280;31603;51.148;16.932;2023-08-30T06:11:17;63776.66;;;-146.80;100.00
45894;BME280;31603;51.148;16.932;2023-08-30T06:13:57;63776.66;;;-146.80;100.00
45894;BME280;31603;51.148;16.932;2023-08-30T06:16:31;63776.66;;;-146.80;100.00
45894;BME280;31603;51.148;16.932;2023-08-30T06:19:02;63776.66;;;-146.80;100.00
45894;BME280;31603;51.148;16.932;2023-08-30T06:21:28;63776.66;;;-146.80;100.00
45894;BME280;31603;51.148;16.932;2023-08-30T06:23:55;63776.66;;;-146.80;100.00
45894;BME280;31603;51.148;16.932;2023-08-30T06:26:21;63776.66;;;-146.80;100.00
45894;BME280;31603;51.148;16.932;2023-08-30T06:28:48;63776.66;;;-146.80;100.00
45894;BME280;31603;51.148;16.932;2023-08-30T06:31:14;63776.66;;;-146.80;100.00
45894;BME280;31603;51.148;16.932;2023-08-30T06:33:42;63776.66;;;-146.80;100.00
45894;BME280;31603;51.148;16.932;2023-08-30T06:36:09;63776.66;;;-146.80;100.00
45894;BME280;31603;51.148;16.932;2023-08-30T06:38:37;63776.66;;;-146.80;100.00
45894;BME280;31603;51.148;16.932;2023-08-30T06:41:03;63776.66;;;-146.80;100.00
45894;BME280;31603;51.148;16.932;2023-08-30T06:43:29;63776.66;;;-146.80;100.00
45894;BME280;31603;51.148;16.932;2023-08-30T06:45:57;63776.66;;;-146.80;100.00
45894;BME280;31603;51.148;16.932;2023-08-30T06:48:24;63776.66;;;-146.80;100.00
45894;BME280;31603;51.148;16.932;2023-08-30T06:50:52;63776.66;;;-146.80;100.00
45894;BME280;31603;51.148;16.932;2023-08-30T06:53:18;63776.66;;;-146.80;100.00
45894;BME280;31603;51.148;16.932;2023-08-30T06:55:44;63776.66;;;-146.80;100.00
45894;BME280;31603;51.148;16.932;2023-08-30T06:58:11;63776.66;;;-146.80;100.00
45894;BME280;31603;51.148;16.932;2023-08-30T07:00:37;63776.66;;;-146.80;100.00
45894;BME280;31603;51.148;16.932;2023-08-30T07:03:04;63776.66;;;-146.80;100.00
45894;BME280;31603;51.148;16.932;2023-08-30T07:05:30;63776.66;;;-146.80;100.00
45894;BME280;31603;51.148;16.932;2023-08-30T07:07:58;63776.66;;;-146.80;100.00
45894;BME280;31603;51.148;16.932;2023-08-30T07:10:24;63776.66;;;-146.80;100.00
45894;BME280;31603;51.148;16.932;2023-08-30T07:12:51;63776.66;;;-146.80;100.00
45894;BME280;31603;51.148;16.932;2023-08-30T07:15:17;63776.66;;;-146.80;100.00
45894;BME280;31603;51.148;16.932;2023-08-30T07:17:44;63776.66;;;-146.80;100.00
45894;BME280;31603;51.148;16.932;2023-08-30T07:20:11;63776.66;;;-146.80;100.00
45894;BME280;31603;51.148;16.932;2023-08-30T07:22:38;63776.66;;;-146.80;100.00
45894;BME280;31603;51.148;16.932;2023-08-30T07:25:09;63776.66;;;-146.80;100.00
45894;BME280;31603;51.148;16.932;2023-08-30T07:27:36;63776.66;;;-146.80;100.00
45894;BME280;31603;51.148;16.932;2023-08-30T07:30:03;63776.66;;;-146.80;100.00
45894;BME280;31603;51.148;16.932;2023-08-30T07:32:29;63776.66;;;-146.80;100.00
45894;BME280;31603;51.148;16.932;2023-08-30T07:34:56;63776.66;;;-146.80;100.00
45894;BME280;31603;51.148;16.932;2023-08-30T07:37:22;63776.66;;;-146.80;100.00
45894;BME280;31603;51.148;16.932;2023-08-30T07:39:51;63776.66;;;-146.80;100.00
45894;BME280;31603;51.148;16.932;2023-08-30T07:42:25;63776.66;;;-146.80;100.00
45894;BME280;31603;51.148;16.932;2023-08-30T07:44:51;63776.66;;;-146.80;100.00
45894;BME280;31603;51.148;16.932;2023-08-30T07:47:18;63776.66;;;-146.80;100.00
45894;BME280;31603;51.148;16.932;2023-08-30T07:49:44;63776.66;;;-146.80;100.00
45894;BME280;31603;51.148;16.932;2023-08-30T07:52:11;63776.66;;;-146.80;100.00
45894;BME280;31603;51.148;16.932;2023-08-30T07:54:39;63776.66;;;-146.80;100.00
45894;BME280;31603;51.148;16.932;2023-08-30T07:57:06;63776.66;;;-146.80;100.00
45894;BME280;31603;51.148;16.932;2023-08-30T07:59:35;63776.66;;;-146.80;100.00
45894;BME280;31603;51.148;16.932;2023-08-30T08:02:02;63776.66;;;-146.80;100.00
45894;BME280;31603;51.148;16.932;2023-08-30T08:04:29;63776.66;;;-146.80;100.00
45894;BME280;31603;51.148;16.932;2023-08-30T08:06:55;63776.66;;;-146.80;100.00
45894;BME280;31603;51.148;16.932;2023-08-30T08:09:21;63776.66;;;-146.80;100.00
45894;BME280;31603;51.148;16.932;2023-08-30T08:11:48;63776.66;;;-146.80;100.00
45894;BME280;31603;51.148;16.932;2023-08-30T08:14:15;63776.66;;;-146.80;100.00
45894;BME280;31603;51.148;16.932;2023-08-30T08:16:43;63776.66;;;-146.80;100.00
45894;BME280;31603;51.148;16.932;2023-08-30T08:19:09;63776.66;;;-146.80;100.00
45894;BME280;31603;51.148;16.932;2023-08-30T08:21:37;63776.66;;;-146.80;100.00
45894;BME280;31603;51.148;16.932;2023-08-30T08:24:04;63776.66;;;-146.80;100.00
45894;BME280;31603;51.148;16.932;2023-08-30T08:26:31;63776.66;;;-146.80;100.00
45894;BME280;31603;51.148;16.932;2023-08-30T08:28:57;63776.66;;;-146.80;100.00
45894;BME280;31603;51.148;16.932;2023-08-30T08:31:24;63776.66;;;-146.80;100.00
45894;BME280;31603;51.148;16.932;2023-08-30T08:34:06;63776.66;;;-146.80;100.00
45894;BME280;31603;51.148;16.932;2023-08-30T08:36:32;63776.66;;;-146.80;100.00
45894;BME280;31603;51.148;16.932;2023-08-30T08:38:59;63776.66;;;-146.80;100.00
45894;BME280;31603;51.148;16.932;2023-08-30T08:41:29;63776.66;;;-146.80;100.00
45894;BME280;31603;51.148;16.932;2023-08-30T08:43:59;63776.66;;;-146.80;100.00
45894;BME280;31603;51.148;16.932;2023-08-30T08:46:29;63776.66;;;-146.80;100.00
45894;BME280;31603;51.148;16.932;2023-08-30T08:48:58;63776.66;;;-146.80;100.00
45894;BME280;31603;51.148;16.932;2023-08-30T08:51:30;63776.66;;;-146.80;100.00
45894;BME280;31603;51.148;16.932;2023-08-30T08:54:02;63776.66;;;-146.80;100.00
45894;BME280;31603;51.148;16.932;2023-08-30T08:56:30;63776.66;;;-146.80;100.00
45894;BME280;31603;51.148;16.932;2023-08-30T08:58:56;63776.66;;;-146.80;100.00
45894;BME280;31603;51.148;16.932;2023-08-30T09:01:23;63776.66;;;-146.80;100.00
45894;BME280;31603;51.148;16.932;2023-08-30T09:03:50;63776.66;;;-146.80;100.00
45894;BME280;31603;51.148;16.932;2023-08-30T09:06:18;63776.66;;;-146.80;100.00
45894;BME280;31603;51.148;16.932;2023-08-30T09:08:44;63776.66;;;-146.80;100.00
45894;BME280;31603;51.148;16.932;2023-08-30T09:11:11;63776.66;;;-146.80;100.00
45894;BME280;31603;51.148;16.932;2023-08-30T09:13:37;63776.66;;;-146.80;100.00
45894;BME280;31603;51.148;16.932;2023-08-30T09:16:11;63776.66;;;-146.80;100.00
45894;BME280;31603;51.148;16.932;2023-08-30T09:18:38;63776.66;;;-146.80;100.00
45894;BME280;31603;51.148;16.932;2023-08-30T09:21:05;63776.66;;;-146.80;100.00
45894;BME280;31603;51.148;16.932;2023-08-30T09:23:33;63776.66;;;-146.80;100.00
45894;BME280;31603;51.148;16.932;2023-08-30T09:26:00;63776.66;;;-146.80;100.00
45894;BME280;31603;51.148;16.932;2023-08-30T09:28:27;63776.66;;;-146.80;100.00
45894;BME280;31603;51.148;16.932;2023-08-30T09:30:54;63776.66;;;-146.80;100.00
45894;BME280;31603;51.148;16.932;2023-08-30T09:33:21;63776.66;;;-146.80;100.00
45894;BME280;31603;51.148;16.932;2023-08-30T09:35:48;63776.66;;;-146.80;100.00
45894;BME280;31603;51.148;16.932;2023-08-30T09:38:17;63776.66;;;-146.80;100.00
45894;BME280;31603;51.148;16.932;2023-08-30T09:40:46;63776.66;;;-146.80;100.00
45894;BME280;31603;51.148;16.932;2023-08-30T09:43:13;63776.66;;;-146.80;100.00
45894;BME280;31603;51.148;16.932;2023-08-30T09:45:44;63776.66;;;-146.80;100.00
45894;BME280;31603;51.148;16.932;2023-08-30T09:48:10;63776.66;;;-146.80;100.00
45894;BME280;31603;51.148;16.932;2023-08-30T09:50:39;63776.66;;;-146.80;100.00
45894;BME280;31603;51.148;16.932;2023-08-30T09:53:07;63776.66;;;-146.80;100.00
45894;BME280;31603;51.148;16.932;2023-08-30T09:55:34;63776.66;;;-146.80;100.00
45894;BME280;31603;51.148;16.932;2023-08-30T09:58:03;63776.66;;;-146.80;100.00
45894;BME280;31603;51.148;16.932;2023-08-30T10:00:30;63776.66;;;-146.80;100.00
45894;BME280;31603;51.148;16.932;2023-08-30T10:02:58;63776.66;;;-146.80;100.00
45894;BME280;31603;51.148;16.932;2023-08-30T10:05:25;63776.66;;;-146.80;100.00
45894;BME280;31603;51.148;16.932;2023-08-30T10:07:52;63776.66;;;-146.80;100.00
45894;BME280;31603;51.148;16.932;2023-08-30T10:10:19;63776.66;;;-146.80;100.00
45894;BME280;31603;51.148;16.932;2023-08-30T10:12:46;63776.66;;;-146.80;100.00
45894;BME280;31603;51.148;16.932;2023-08-30T10:15:15;63776.66;;;-146.80;100.00
45894;BME280;31603;51.148;16.932;2023-08-30T10:17:44;63776.66;;;-146.80;100.00
45894;BME280;31603;51.148;16.932;2023-08-30T10:20:11;63776.66;;;-146.80;100.00
45894;BME280;31603;51.148;16.932;2023-08-30T10:22:40;63776.66;;;-146.80;100.00
45894;BME280;31603;51.148;16.932;2023-08-30T10:25:09;63776.66;;;-146.80;100.00
45894;BME280;31603;51.148;16.932;2023-08-30T10:27:38;63776.66;;;-146.80;100.00
45894;BME280;31603;51.148;16.932;2023-08-30T10:30:07;63776.66;;;-146.80;100.00
45894;BME280;31603;51.148;16.932;2023-08-30T10:32:40;63776.66;;;-146.80;100.00
45894;BME280;31603;51.148;16.932;2023-08-30T10:35:06;63776.66;;;-146.80;100.00
45894;BME280;31603;51.148;16.932;2023-08-30T10:37:33;63776.66;;;-146.80;100.00
45894;BME280;31603;51.148;16.932;2023-08-30T10:40:00;63776.66;;;-146.80;100.00
45894;BME280;31603;51.148;16.932;2023-08-30T10:42:28;63776.66;;;-146.80;100.00
45894;BME280;31603;51.148;16.932;2023-08-30T10:44:57;63776.66;;;-146.80;100.00
45894;BME280;31603;51.148;16.932;2023-08-30T10:47:24;63776.66;;;-146.80;100.00
45894;BME280;31603;51.148;16.932;2023-08-30T10:49:54;63776.66;;;-146.80;100.00
45894;BME280;31603;51.148;16.932;2023-08-30T10:52:21;63776.66;;;-146.80;100.00
45894;BME280;31603;51.148;16.932;2023-08-30T10:54:48;63776.66;;;-146.80;100.00
45894;BME280;31603;51.148;16.932;2023-08-30T10:57:18;63776.66;;;-146.80;100.00
45894;BME280;31603;51.148;16.932;2023-08-30T11:00:03;63776.66;;;-146.80;100.00
45894;BME280;31603;51.148;16.932;2023-08-30T11:02:30;63776.66;;;-146.80;100.00
45894;BME280;31603;51.148;16.932;2023-08-30T11:04:58;63776.66;;;-146.80;100.00
45894;BME280;31603;51.148;16.932;2023-08-30T11:07:25;63776.66;;;-146.80;100.00
45894;BME280;31603;51.148;16.932;2023-08-30T11:09:52;63776.66;;;-146.80;100.00
45894;BME280;31603;51.148;16.932;2023-08-30T11:12:19;63776.66;;;-146.80;100.00
45894;BME280;31603;51.148;16.932;2023-08-30T11:14:47;63776.66;;;-146.80;100.00
45894;BME280;31603;51.148;16.932;2023-08-30T11:17:15;63776.66;;;-146.80;100.00
45894;BME280;31603;51.148;16.932;2023-08-30T11:19:42;63776.66;;;-146.80;100.00
45894;BME280;31603;51.148;16.932;2023-08-30T11:22:10;63776.66;;;-146.80;100.00
45894;BME280;31603;51.148;16.932;2023-08-30T11:24:39;63776.66;;;-146.80;100.00
45894;BME280;31603;51.148;16.932;2023-08-30T11:27:06;63776.66;;;-146.80;100.00
45894;BME280;31603;51.148;16.932;2023-08-30T11:29:33;63776.66;;;-146.80;100.00
45894;BME280;31603;51.148;16.932;2023-08-30T11:32:00;63776.66;;;-146.80;100.00
45894;BME280;31603;51.148;16.932;2023-08-30T11:34:26;63776.66;;;-146.80;100.00
45894;BME280;31603;51.148;16.932;2023-08-30T11:36:53;63776.66;;;-146.80;100.00
45894;BME280;31603;51.148;16.932;2023-08-30T11:39:21;63776.66;;;-146.80;100.00
45894;BME280;31603;51.148;16.932;2023-08-30T11:41:50;63776.66;;;-146.80;100.00
45894;BME280;31603;51.148;16.932;2023-08-30T11:44:16;63776.66;;;-146.80;100.00
45894;BME280;31603;51.148;16.932;2023-08-30T11:46:43;63776.66;;;-146.80;100.00
45894;BME280;31603;51.148;16.932;2023-08-30T11:49:10;63776.66;;;-146.80;100.00
45894;BME280;31603;51.148;16.932;2023-08-30T11:51:36;63776.66;;;-146.80;100.00
45894;BME280;31603;51.148;16.932;2023-08-30T11:54:03;63776.66;;;-146.80;100.00
45894;BME280;31603;51.148;16.932;2023-08-30T11:56:31;63776.66;;;-146.80;100.00
45894;BME280;31603;51.148;16.932;2023-08-30T11:58:58;63776.66;;;-146.80;100.00
45894;BME280;31603;51.148;16.932;2023-08-30T12:01:24;63776.66;;;-146.80;100.00
45894;BME280;31603;51.148;16.932;2023-08-30T12:03:50;63776.66;;;-146.80;100.00
45894;BME280;31603;51.148;16.932;2023-08-30T12:06:17;63776.66;;;-146.80;100.00
45894;BME280;31603;51.148;16.932;2023-08-30T12:08:44;63776.66;;;-146.80;100.00
45894;BME280;31603;51.148;16.932;2023-08-30T12:11:17;63776.66;;;-146.80;100.00
45894;BME280;31603;51.148;16.932;2023-08-30T12:13:46;63776.66;;;-146.80;100.00
45894;BME280;31603;51.148;16.932;2023-08-30T12:16:16;63776.66;;;-146.80;100.00
45894;BME280;31603;51.148;16.932;2023-08-30T12:18:42;63776.66;;;-146.80;100.00
45894;BME280;31603;51.148;16.932;2023-08-30T12:21:09;63776.66;;;-146.80;100.00
45894;BME280;31603;51.148;16.932;2023-08-30T12:23:35;63776.66;;;-146.80;100.00
45894;BME280;31603;51.148;16.932;2023-08-30T12:26:03;63776.66;;;-146.80;100.00
45894;BME280;31603;51.148;16.932;2023-08-30T12:28:31;63776.66;;;-146.80;100.00
45894;BME280;31603;51.148;16.932;2023-08-30T12:30:59;63776.66;;;-146.80;100.00